sensor_id;sensor_type;location;lat;lon;timestamp;temperature;humidity
35635;DHT22;21757;43.610;1.440;2022-07-22T00:01:50;25.90;69.80
35635;DHT22;21757;43.610;1.440;2022-07-22T00:04:15;25.90;70.20
35635;DHT22;21757;43.610;1.440;2022-07-22T00:06:42;26.00;70.20
35635;DHT22;21757;43.610;1.440;2022-07-22T00:09:08;25.90;69.70
35635;DHT22;21757;43.610;1.440;2022-07-22T00:11:34;25.90;70.20
35635;DHT22;21757;43.610;1.440;2022-07-22T00:14:00;25.90;70.30
35635;DHT22;21757;43.610;1.440;2022-07-22T00:24:12;25.80;70.90
35635;DHT22;21757;43.610;1.440;2022-07-22T00:26:38;25.80;70.30
35635;DHT22;21757;43.610;1.440;2022-07-22T00:29:03;25.80;71.00
35635;DHT22;21757;43.610;1.440;2022-07-22T00:36:40;25.70;71.70
35635;DHT22;21757;43.610;1.440;2022-07-22T01:02:24;25.40;73.70
35635;DHT22;21757;43.610;1.440;2022-07-22T01:04:50;25.40;73.10
35635;DHT22;21757;43.610;1.440;2022-07-22T01:12:40;25.30;74.50
35635;DHT22;21757;43.610;1.440;2022-07-22T01:15:07;25.20;74.80
35635;DHT22;21757;43.610;1.440;2022-07-22T01:17:33;25.20;74.10
35635;DHT22;21757;43.610;1.440;2022-07-22T01:20:05;25.10;74.10
35635;DHT22;21757;43.610;1.440;2022-07-22T01:27:36;24.90;75.40
35635;DHT22;21757;43.610;1.440;2022-07-22T01:30:04;24.80;75.70
35635;DHT22;21757;43.610;1.440;2022-07-22T01:32:31;24.80;75.90
35635;DHT22;21757;43.610;1.440;2022-07-22T01:35:23;24.70;75.80
35635;DHT22;21757;43.610;1.440;2022-07-22T01:37:49;24.70;75.30
35635;DHT22;21757;43.610;1.440;2022-07-22T01:40:14;24.70;75.90
35635;DHT22;21757;43.610;1.440;2022-07-22T01:42:40;24.60;76.80
35635;DHT22;21757;43.610;1.440;2022-07-22T01:45:06;24.60;75.90
35635;DHT22;21757;43.610;1.440;2022-07-22T01:47:32;24.60;76.20
35635;DHT22;21757;43.610;1.440;2022-07-22T01:49:58;24.60;76.20
35635;DHT22;21757;43.610;1.440;2022-07-22T01:52:23;24.60;75.90
35635;DHT22;21757;43.610;1.440;2022-07-22T01:54:49;24.50;75.90
35635;DHT22;21757;43.610;1.440;2022-07-22T01:57:15;24.40;76.30
35635;DHT22;21757;43.610;1.440;2022-07-22T01:59:43;24.40;75.60
35635;DHT22;21757;43.610;1.440;2022-07-22T02:02:09;24.40;76.60
35635;DHT22;21757;43.610;1.440;2022-07-22T02:04:34;24.30;76.10
35635;DHT22;21757;43.610;1.440;2022-07-22T02:07:01;24.30;76.40
35635;DHT22;21757;43.610;1.440;2022-07-22T02:09:29;24.30;76.00
35635;DHT22;21757;43.610;1.440;2022-07-22T02:11:56;24.30;76.40
35635;DHT22;21757;43.610;1.440;2022-07-22T02:14:22;24.30;76.30
35635;DHT22;21757;43.610;1.440;2022-07-22T02:16:47;24.30;76.30
35635;DHT22;21757;43.610;1.440;2022-07-22T02:19:14;24.30;76.60
35635;DHT22;21757;43.610;1.440;2022-07-22T02:21:42;24.30;76.30
35635;DHT22;21757;43.610;1.440;2022-07-22T02:24:13;24.30;75.90
35635;DHT22;21757;43.610;1.440;2022-07-22T02:34:32;24.20;76.00
35635;DHT22;21757;43.610;1.440;2022-07-22T02:36:58;24.10;75.70
35635;DHT22;21757;43.610;1.440;2022-07-22T02:39:24;24.20;75.70
35635;DHT22;21757;43.610;1.440;2022-07-22T02:41:50;24.10;75.30
35635;DHT22;21757;43.610;1.440;2022-07-22T02:44:15;24.10;75.70
35635;DHT22;21757;43.610;1.440;2022-07-22T02:46:43;24.10;75.70
35635;DHT22;21757;43.610;1.440;2022-07-22T02:49:10;24.10;75.90
35635;DHT22;21757;43.610;1.440;2022-07-22T02:51:56;24.10;75.30
35635;DHT22;21757;43.610;1.440;2022-07-22T02:54:44;24.10;75.50
35635;DHT22;21757;43.610;1.440;2022-07-22T02:57:11;24.10;87.20
35635;DHT22;21757;43.610;1.440;2022-07-22T02:59:38;24.20;75.90
35635;DHT22;21757;43.610;1.440;2022-07-22T03:02:05;24.20;75.90
35635;DHT22;21757;43.610;1.440;2022-07-22T03:04:30;24.30;76.10
35635;DHT22;21757;43.610;1.440;2022-07-22T03:06:56;24.20;76.00
35635;DHT22;21757;43.610;1.440;2022-07-22T03:09:23;24.20;75.80
35635;DHT22;21757;43.610;1.440;2022-07-22T03:11:49;24.20;75.80
35635;DHT22;21757;43.610;1.440;2022-07-22T03:14:16;24.20;75.90
35635;DHT22;21757;43.610;1.440;2022-07-22T03:16:45;24.10;75.80
35635;DHT22;21757;43.610;1.440;2022-07-22T03:30:26;23.90;76.30
35635;DHT22;21757;43.610;1.440;2022-07-22T03:32:51;23.90;76.50
35635;DHT22;21757;43.610;1.440;2022-07-22T03:35:17;23.90;76.70
35635;DHT22;21757;43.610;1.440;2022-07-22T03:37:43;23.90;76.70
35635;DHT22;21757;43.610;1.440;2022-07-22T03:40:09;23.80;77.00
35635;DHT22;21757;43.610;1.440;2022-07-22T03:42:35;23.80;76.50
35635;DHT22;21757;43.610;1.440;2022-07-22T03:45:02;23.80;77.70
35635;DHT22;21757;43.610;1.440;2022-07-22T03:47:28;23.80;77.50
35635;DHT22;21757;43.610;1.440;2022-07-22T03:49:54;23.80;77.90
35635;DHT22;21757;43.610;1.440;2022-07-22T03:52:20;23.80;78.90
35635;DHT22;21757;43.610;1.440;2022-07-22T03:54:45;23.80;80.60
35635;DHT22;21757;43.610;1.440;2022-07-22T03:57:13;23.80;80.80
35635;DHT22;21757;43.610;1.440;2022-07-22T03:59:38;23.70;80.50
35635;DHT22;21757;43.610;1.440;2022-07-22T04:02:04;23.60;81.70
35635;DHT22;21757;43.610;1.440;2022-07-22T04:04:30;23.60;81.90
35635;DHT22;21757;43.610;1.440;2022-07-22T04:06:56;23.60;81.50
35635;DHT22;21757;43.610;1.440;2022-07-22T04:09:21;23.50;81.40
35635;DHT22;21757;43.610;1.440;2022-07-22T04:11:47;23.50;80.50
35635;DHT22;21757;43.610;1.440;2022-07-22T04:14:13;23.50;80.50
35635;DHT22;21757;43.610;1.440;2022-07-22T04:16:39;23.50;80.40
35635;DHT22;21757;43.610;1.440;2022-07-22T04:19:05;23.30;80.30
35635;DHT22;21757;43.610;1.440;2022-07-22T04:21:31;23.30;80.50
35635;DHT22;21757;43.610;1.440;2022-07-22T04:23:56;23.30;81.60
35635;DHT22;21757;43.610;1.440;2022-07-22T04:26:22;23.30;80.90
35635;DHT22;21757;43.610;1.440;2022-07-22T04:28:48;23.20;80.70
35635;DHT22;21757;43.610;1.440;2022-07-22T04:31:14;23.20;81.30
35635;DHT22;21757;43.610;1.440;2022-07-22T04:33:40;23.20;81.20
35635;DHT22;21757;43.610;1.440;2022-07-22T04:36:06;23.20;81.10
35635;DHT22;21757;43.610;1.440;2022-07-22T04:38:31;23.10;81.10
35635;DHT22;21757;43.610;1.440;2022-07-22T04:40:57;23.10;81.30
35635;DHT22;21757;43.610;1.440;2022-07-22T04:43:23;23.10;81.70
35635;DHT22;21757;43.610;1.440;2022-07-22T04:45:49;23.10;81.30
35635;DHT22;21757;43.610;1.440;2022-07-22T04:48:15;23.10;81.60
35635;DHT22;21757;43.610;1.440;2022-07-22T04:50:41;23.20;81.80
35635;DHT22;21757;43.610;1.440;2022-07-22T04:53:07;23.20;82.00
35635;DHT22;21757;43.610;1.440;2022-07-22T04:55:32;23.30;81.80
35635;DHT22;21757;43.610;1.440;2022-07-22T04:57:58;23.30;81.90
35635;DHT22;21757;43.610;1.440;2022-07-22T05:00:24;23.40;81.90
35635;DHT22;21757;43.610;1.440;2022-07-22T05:02:50;23.40;81.70
35635;DHT22;21757;43.610;1.440;2022-07-22T05:05:16;23.40;82.00
35635;DHT22;21757;43.610;1.440;2022-07-22T05:07:42;23.50;82.00
35635;DHT22;21757;43.610;1.440;2022-07-22T05:10:08;23.50;82.10
35635;DHT22;21757;43.610;1.440;2022-07-22T05:12:34;23.50;81.90
35635;DHT22;21757;43.610;1.440;2022-07-22T05:15:00;23.50;81.80
35635;DHT22;21757;43.610;1.440;2022-07-22T05:17:26;23.60;82.30
35635;DHT22;21757;43.610;1.440;2022-07-22T05:19:52;23.60;82.30
35635;DHT22;21757;43.610;1.440;2022-07-22T05:22:17;23.60;82.20
35635;DHT22;21757;43.610;1.440;2022-07-22T05:24:43;23.80;83.40
35635;DHT22;21757;43.610;1.440;2022-07-22T05:27:10;23.90;83.10
35635;DHT22;21757;43.610;1.440;2022-07-22T05:29:35;24.00;83.20
35635;DHT22;21757;43.610;1.440;2022-07-22T05:32:01;24.10;83.20
35635;DHT22;21757;43.610;1.440;2022-07-22T05:34:27;24.20;83.20
35635;DHT22;21757;43.610;1.440;2022-07-22T05:36:52;24.30;83.70
35635;DHT22;21757;43.610;1.440;2022-07-22T05:39:18;24.30;83.30
35635;DHT22;21757;43.610;1.440;2022-07-22T05:41:44;24.10;83.80
35635;DHT22;21757;43.610;1.440;2022-07-22T05:44:09;24.20;83.90
35635;DHT22;21757;43.610;1.440;2022-07-22T05:46:35;24.30;85.10
35635;DHT22;21757;43.610;1.440;2022-07-22T05:49:01;24.50;84.50
35635;DHT22;21757;43.610;1.440;2022-07-22T05:51:26;24.50;84.70
35635;DHT22;21757;43.610;1.440;2022-07-22T05:53:52;24.70;85.40
35635;DHT22;21757;43.610;1.440;2022-07-22T05:56:18;25.10;84.50
35635;DHT22;21757;43.610;1.440;2022-07-22T05:58:43;25.10;84.60
35635;DHT22;21757;43.610;1.440;2022-07-22T06:01:10;25.20;85.10
35635;DHT22;21757;43.610;1.440;2022-07-22T06:03:36;25.30;85.40
35635;DHT22;21757;43.610;1.440;2022-07-22T06:06:02;25.20;86.00
35635;DHT22;21757;43.610;1.440;2022-07-22T06:08:30;25.40;86.20
35635;DHT22;21757;43.610;1.440;2022-07-22T06:10:57;25.60;86.00
35635;DHT22;21757;43.610;1.440;2022-07-22T06:13:23;25.50;86.10
35635;DHT22;21757;43.610;1.440;2022-07-22T06:15:48;25.40;86.40
35635;DHT22;21757;43.610;1.440;2022-07-22T06:18:14;25.20;86.60
35635;DHT22;21757;43.610;1.440;2022-07-22T06:20:40;25.10;86.80
35635;DHT22;21757;43.610;1.440;2022-07-22T06:23:06;25.00;87.10
35635;DHT22;21757;43.610;1.440;2022-07-22T06:25:31;25.00;87.40
35635;DHT22;21757;43.610;1.440;2022-07-22T06:28:00;25.00;87.80
35635;DHT22;21757;43.610;1.440;2022-07-22T06:30:26;25.00;87.80
35635;DHT22;21757;43.610;1.440;2022-07-22T06:32:54;24.80;88.00
35635;DHT22;21757;43.610;1.440;2022-07-22T06:35:20;24.60;88.40
35635;DHT22;21757;43.610;1.440;2022-07-22T06:37:46;25.00;89.10
35635;DHT22;21757;43.610;1.440;2022-07-22T06:40:12;25.20;89.00
35635;DHT22;21757;43.610;1.440;2022-07-22T06:42:39;25.40;88.90
35635;DHT22;21757;43.610;1.440;2022-07-22T06:45:05;25.20;89.10
35635;DHT22;21757;43.610;1.440;2022-07-22T06:47:30;24.80;95.20
35635;DHT22;21757;43.610;1.440;2022-07-22T06:49:57;24.60;90.00
35635;DHT22;21757;43.610;1.440;2022-07-22T06:52:23;24.70;90.20
35635;DHT22;21757;43.610;1.440;2022-07-22T06:54:49;24.50;90.60
35635;DHT22;21757;43.610;1.440;2022-07-22T06:57:15;24.60;90.80
35635;DHT22;21757;43.610;1.440;2022-07-22T06:59:40;24.60;90.80
35635;DHT22;21757;43.610;1.440;2022-07-22T07:02:06;24.50;91.10
35635;DHT22;21757;43.610;1.440;2022-07-22T07:04:32;24.50;91.20
35635;DHT22;21757;43.610;1.440;2022-07-22T07:06:58;24.20;91.50
35635;DHT22;21757;43.610;1.440;2022-07-22T07:09:23;24.10;92.10
35635;DHT22;21757;43.610;1.440;2022-07-22T07:11:49;24.10;92.30
35635;DHT22;21757;43.610;1.440;2022-07-22T07:14:15;24.30;92.50
35635;DHT22;21757;43.610;1.440;2022-07-22T07:16:40;24.30;92.60
35635;DHT22;21757;43.610;1.440;2022-07-22T07:19:06;24.50;92.50
35635;DHT22;21757;43.610;1.440;2022-07-22T07:21:32;24.50;92.60
35635;DHT22;21757;43.610;1.440;2022-07-22T07:23:57;24.70;92.50
35635;DHT22;21757;43.610;1.440;2022-07-22T07:26:24;24.70;92.40
35635;DHT22;21757;43.610;1.440;2022-07-22T07:28:49;24.80;92.30
35635;DHT22;21757;43.610;1.440;2022-07-22T07:31:15;24.70;92.40
35635;DHT22;21757;43.610;1.440;2022-07-22T07:33:42;24.90;92.40
35635;DHT22;21757;43.610;1.440;2022-07-22T07:36:08;24.90;92.40
35635;DHT22;21757;43.610;1.440;2022-07-22T07:38:34;24.90;92.40
35635;DHT22;21757;43.610;1.440;2022-07-22T07:40:59;25.10;92.40
35635;DHT22;21757;43.610;1.440;2022-07-22T07:43:25;25.20;92.30
35635;DHT22;21757;43.610;1.440;2022-07-22T07:45:51;25.20;92.50
35635;DHT22;21757;43.610;1.440;2022-07-22T07:48:17;25.00;92.20
35635;DHT22;21757;43.610;1.440;2022-07-22T07:50:43;24.90;92.50
35635;DHT22;21757;43.610;1.440;2022-07-22T07:53:09;25.20;92.60
35635;DHT22;21757;43.610;1.440;2022-07-22T07:55:38;25.10;92.70
35635;DHT22;21757;43.610;1.440;2022-07-22T07:58:05;25.00;92.80
35635;DHT22;21757;43.610;1.440;2022-07-22T08:00:31;25.00;92.50
35635;DHT22;21757;43.610;1.440;2022-07-22T08:02:59;25.20;92.50
35635;DHT22;21757;43.610;1.440;2022-07-22T08:05:25;25.60;92.40
35635;DHT22;21757;43.610;1.440;2022-07-22T08:07:51;25.70;92.40
35635;DHT22;21757;43.610;1.440;2022-07-22T08:10:17;25.80;92.10
35635;DHT22;21757;43.610;1.440;2022-07-22T08:12:43;25.70;92.10
35635;DHT22;21757;43.610;1.440;2022-07-22T08:15:08;25.70;92.20
35635;DHT22;21757;43.610;1.440;2022-07-22T08:17:36;25.70;92.10
35635;DHT22;21757;43.610;1.440;2022-07-22T08:20:03;25.80;91.80
35635;DHT22;21757;43.610;1.440;2022-07-22T08:22:29;25.70;91.90
35635;DHT22;21757;43.610;1.440;2022-07-22T08:24:54;25.80;91.90
35635;DHT22;21757;43.610;1.440;2022-07-22T08:27:20;25.80;91.80
35635;DHT22;21757;43.610;1.440;2022-07-22T08:29:46;25.70;92.10
35635;DHT22;21757;43.610;1.440;2022-07-22T08:32:11;25.70;91.90
35635;DHT22;21757;43.610;1.440;2022-07-22T08:34:37;25.60;92.30
35635;DHT22;21757;43.610;1.440;2022-07-22T08:37:03;25.80;92.00
35635;DHT22;21757;43.610;1.440;2022-07-22T08:39:29;25.80;92.30
35635;DHT22;21757;43.610;1.440;2022-07-22T08:41:56;25.80;91.90
35635;DHT22;21757;43.610;1.440;2022-07-22T08:44:23;25.90;92.00
35635;DHT22;21757;43.610;1.440;2022-07-22T08:46:49;26.00;91.70
35635;DHT22;21757;43.610;1.440;2022-07-22T08:49:16;26.40;91.80
35635;DHT22;21757;43.610;1.440;2022-07-22T08:51:42;26.50;91.70
35635;DHT22;21757;43.610;1.440;2022-07-22T08:54:08;26.30;91.70
35635;DHT22;21757;43.610;1.440;2022-07-22T08:56:34;26.50;91.60
35635;DHT22;21757;43.610;1.440;2022-07-22T08:59:00;26.40;91.40
35635;DHT22;21757;43.610;1.440;2022-07-22T09:01:26;26.40;91.40
35635;DHT22;21757;43.610;1.440;2022-07-22T09:03:56;26.20;91.40
35635;DHT22;21757;43.610;1.440;2022-07-22T09:06:24;26.40;91.40
35635;DHT22;21757;43.610;1.440;2022-07-22T09:11:21;26.50;91.20
35635;DHT22;21757;43.610;1.440;2022-07-22T09:13:48;26.50;91.30
35635;DHT22;21757;43.610;1.440;2022-07-22T09:16:14;26.80;91.20
35635;DHT22;21757;43.610;1.440;2022-07-22T09:18:51;27.00;91.10
35635;DHT22;21757;43.610;1.440;2022-07-22T09:21:17;26.90;91.20
35635;DHT22;21757;43.610;1.440;2022-07-22T09:23:43;27.00;91.20
35635;DHT22;21757;43.610;1.440;2022-07-22T09:26:32;27.00;90.90
35635;DHT22;21757;43.610;1.440;2022-07-22T09:28:59;27.20;90.80
35635;DHT22;21757;43.610;1.440;2022-07-22T09:31:26;27.40;90.80
35635;DHT22;21757;43.610;1.440;2022-07-22T09:33:52;27.40;90.70
35635;DHT22;21757;43.610;1.440;2022-07-22T09:36:19;27.40;90.70
35635;DHT22;21757;43.610;1.440;2022-07-22T09:38:45;27.10;90.50
35635;DHT22;21757;43.610;1.440;2022-07-22T09:41:11;27.10;90.30
35635;DHT22;21757;43.610;1.440;2022-07-22T09:43:37;27.40;90.70
35635;DHT22;21757;43.610;1.440;2022-07-22T09:46:03;27.40;90.60
35635;DHT22;21757;43.610;1.440;2022-07-22T09:48:30;27.30;90.40
35635;DHT22;21757;43.610;1.440;2022-07-22T09:50:57;27.60;90.40
35635;DHT22;21757;43.610;1.440;2022-07-22T09:53:24;27.40;90.50
35635;DHT22;21757;43.610;1.440;2022-07-22T09:55:50;27.70;90.30
35635;DHT22;21757;43.610;1.440;2022-07-22T09:58:16;27.90;90.80
35635;DHT22;21757;43.610;1.440;2022-07-22T10:00:43;28.20;90.10
35635;DHT22;21757;43.610;1.440;2022-07-22T10:03:12;28.00;89.90
35635;DHT22;21757;43.610;1.440;2022-07-22T10:05:40;27.80;90.00
35635;DHT22;21757;43.610;1.440;2022-07-22T10:08:06;27.80;90.00
35635;DHT22;21757;43.610;1.440;2022-07-22T10:10:35;27.70;90.00
35635;DHT22;21757;43.610;1.440;2022-07-22T10:13:02;28.00;90.00
35635;DHT22;21757;43.610;1.440;2022-07-22T10:15:29;28.00;89.90
35635;DHT22;21757;43.610;1.440;2022-07-22T10:17:57;27.80;90.30
35635;DHT22;21757;43.610;1.440;2022-07-22T10:20:26;27.70;89.90
35635;DHT22;21757;43.610;1.440;2022-07-22T10:22:58;28.00;90.20
35635;DHT22;21757;43.610;1.440;2022-07-22T10:25:27;28.00;90.00
35635;DHT22;21757;43.610;1.440;2022-07-22T10:30:32;27.70;89.70
35635;DHT22;21757;43.610;1.440;2022-07-22T10:35:33;27.90;89.40
35635;DHT22;21757;43.610;1.440;2022-07-22T10:38:02;28.10;88.50
35635;DHT22;21757;43.610;1.440;2022-07-22T10:40:45;28.00;88.30
35635;DHT22;21757;43.610;1.440;2022-07-22T10:43:12;28.20;88.00
35635;DHT22;21757;43.610;1.440;2022-07-22T10:45:39;28.40;87.50
35635;DHT22;21757;43.610;1.440;2022-07-22T10:48:08;28.60;87.60
35635;DHT22;21757;43.610;1.440;2022-07-22T10:53:14;28.50;87.40
35635;DHT22;21757;43.610;1.440;2022-07-22T10:56:01;28.50;87.50
35635;DHT22;21757;43.610;1.440;2022-07-22T11:01:00;28.40;87.70
35635;DHT22;21757;43.610;1.440;2022-07-22T11:03:29;28.50;86.70
35635;DHT22;21757;43.610;1.440;2022-07-22T11:05:55;28.70;87.50
35635;DHT22;21757;43.610;1.440;2022-07-22T11:08:22;28.90;86.70
35635;DHT22;21757;43.610;1.440;2022-07-22T11:10:51;28.80;87.00
35635;DHT22;21757;43.610;1.440;2022-07-22T11:13:36;29.00;87.20
35635;DHT22;21757;43.610;1.440;2022-07-22T11:16:23;29.30;87.20
35635;DHT22;21757;43.610;1.440;2022-07-22T11:18:58;29.00;86.60
35635;DHT22;21757;43.610;1.440;2022-07-22T11:21:27;28.80;87.20
35635;DHT22;21757;43.610;1.440;2022-07-22T11:23:55;28.60;86.60
35635;DHT22;21757;43.610;1.440;2022-07-22T11:26:40;28.40;86.60
35635;DHT22;21757;43.610;1.440;2022-07-22T11:29:08;28.50;86.50
35635;DHT22;21757;43.610;1.440;2022-07-22T11:31:38;28.30;86.90
35635;DHT22;21757;43.610;1.440;2022-07-22T11:34:08;28.40;86.70
35635;DHT22;21757;43.610;1.440;2022-07-22T11:36:35;28.80;87.20
35635;DHT22;21757;43.610;1.440;2022-07-22T11:39:01;28.60;86.50
35635;DHT22;21757;43.610;1.440;2022-07-22T11:41:29;28.60;86.20
35635;DHT22;21757;43.610;1.440;2022-07-22T11:43:55;28.40;86.40
35635;DHT22;21757;43.610;1.440;2022-07-22T11:46:21;28.70;86.00
35635;DHT22;21757;43.610;1.440;2022-07-22T11:48:48;28.70;86.70
35635;DHT22;21757;43.610;1.440;2022-07-22T11:51:14;28.70;86.20
35635;DHT22;21757;43.610;1.440;2022-07-22T11:53:41;28.90;86.10
35635;DHT22;21757;43.610;1.440;2022-07-22T11:56:08;28.80;85.80
35635;DHT22;21757;43.610;1.440;2022-07-22T11:58:43;28.70;86.00
35635;DHT22;21757;43.610;1.440;2022-07-22T12:01:11;29.20;86.20
35635;DHT22;21757;43.610;1.440;2022-07-22T12:03:38;29.10;85.60
35635;DHT22;21757;43.610;1.440;2022-07-22T12:06:07;29.10;85.60
35635;DHT22;21757;43.610;1.440;2022-07-22T12:08:44;29.60;85.30
35635;DHT22;21757;43.610;1.440;2022-07-22T12:11:12;30.00;85.00
35635;DHT22;21757;43.610;1.440;2022-07-22T12:13:43;29.70;84.60
35635;DHT22;21757;43.610;1.440;2022-07-22T12:16:26;29.30;84.50
35635;DHT22;21757;43.610;1.440;2022-07-22T12:21:20;29.80;84.70
35635;DHT22;21757;43.610;1.440;2022-07-22T12:23:55;30.00;84.50
35635;DHT22;21757;43.610;1.440;2022-07-22T12:26:37;30.00;83.80
35635;DHT22;21757;43.610;1.440;2022-07-22T12:29:19;29.80;84.50
35635;DHT22;21757;43.610;1.440;2022-07-22T12:31:46;29.60;83.20
35635;DHT22;21757;43.610;1.440;2022-07-22T12:34:13;29.80;83.30
35635;DHT22;21757;43.610;1.440;2022-07-22T12:36:43;30.10;82.90
35635;DHT22;21757;43.610;1.440;2022-07-22T12:39:17;30.20;83.30
35635;DHT22;21757;43.610;1.440;2022-07-22T12:41:51;29.80;83.10
35635;DHT22;21757;43.610;1.440;2022-07-22T12:44:25;29.90;82.90
35635;DHT22;21757;43.610;1.440;2022-07-22T12:46:53;30.30;82.60
35635;DHT22;21757;43.610;1.440;2022-07-22T12:49:22;30.30;83.40
35635;DHT22;21757;43.610;1.440;2022-07-22T12:52:13;30.80;82.10
35635;DHT22;21757;43.610;1.440;2022-07-22T12:54:40;30.50;82.30
35635;DHT22;21757;43.610;1.440;2022-07-22T12:57:08;30.50;82.40
35635;DHT22;21757;43.610;1.440;2022-07-22T12:59:36;30.50;81.80
35635;DHT22;21757;43.610;1.440;2022-07-22T13:02:02;30.50;81.70
35635;DHT22;21757;43.610;1.440;2022-07-22T13:04:28;30.40;81.40
35635;DHT22;21757;43.610;1.440;2022-07-22T13:06:54;30.20;80.80
35635;DHT22;21757;43.610;1.440;2022-07-22T13:09:20;30.00;80.90
35635;DHT22;21757;43.610;1.440;2022-07-22T13:11:45;29.90;80.40
35635;DHT22;21757;43.610;1.440;2022-07-22T13:14:13;29.50;80.30
35635;DHT22;21757;43.610;1.440;2022-07-22T13:16:39;29.80;80.70
35635;DHT22;21757;43.610;1.440;2022-07-22T13:19:05;29.90;80.80
35635;DHT22;21757;43.610;1.440;2022-07-22T13:21:31;30.30;80.90
35635;DHT22;21757;43.610;1.440;2022-07-22T13:23:57;30.60;80.70
35635;DHT22;21757;43.610;1.440;2022-07-22T13:26:23;30.50;80.30
35635;DHT22;21757;43.610;1.440;2022-07-22T13:28:50;30.40;80.20
35635;DHT22;21757;43.610;1.440;2022-07-22T13:31:15;30.50;80.00
35635;DHT22;21757;43.610;1.440;2022-07-22T13:33:41;30.60;80.50
35635;DHT22;21757;43.610;1.440;2022-07-22T13:36:07;30.20;80.20
35635;DHT22;21757;43.610;1.440;2022-07-22T13:38:33;30.80;80.90
35635;DHT22;21757;43.610;1.440;2022-07-22T13:40:58;31.00;80.50
35635;DHT22;21757;43.610;1.440;2022-07-22T13:43:25;30.80;79.90
35635;DHT22;21757;43.610;1.440;2022-07-22T13:45:51;30.80;79.60
35635;DHT22;21757;43.610;1.440;2022-07-22T13:48:17;30.20;79.20
35635;DHT22;21757;43.610;1.440;2022-07-22T13:50:44;30.50;79.50
35635;DHT22;21757;43.610;1.440;2022-07-22T13:53:10;30.40;79.00
35635;DHT22;21757;43.610;1.440;2022-07-22T13:55:38;30.60;79.50
35635;DHT22;21757;43.610;1.440;2022-07-22T13:58:04;30.50;79.60
35635;DHT22;21757;43.610;1.440;2022-07-22T14:00:31;30.30;79.10
35635;DHT22;21757;43.610;1.440;2022-07-22T14:02:57;30.20;79.10
35635;DHT22;21757;43.610;1.440;2022-07-22T14:05:23;30.30;79.50
35635;DHT22;21757;43.610;1.440;2022-07-22T14:07:49;30.50;79.50
35635;DHT22;21757;43.610;1.440;2022-07-22T14:10:14;30.30;78.30
35635;DHT22;21757;43.610;1.440;2022-07-22T14:12:40;30.60;78.90
35635;DHT22;21757;43.610;1.440;2022-07-22T14:15:08;30.40;78.60
35635;DHT22;21757;43.610;1.440;2022-07-22T14:17:34;30.30;78.90
35635;DHT22;21757;43.610;1.440;2022-07-22T14:20:00;30.70;78.20
35635;DHT22;21757;43.610;1.440;2022-07-22T14:22:27;30.40;78.10
35635;DHT22;21757;43.610;1.440;2022-07-22T14:24:53;30.40;78.10
35635;DHT22;21757;43.610;1.440;2022-07-22T14:27:19;30.40;77.80
35635;DHT22;21757;43.610;1.440;2022-07-22T14:29:44;30.20;77.50
35635;DHT22;21757;43.610;1.440;2022-07-22T14:32:10;30.40;77.70
35635;DHT22;21757;43.610;1.440;2022-07-22T14:34:36;30.20;77.90
35635;DHT22;21757;43.610;1.440;2022-07-22T14:37:01;30.40;77.50
35635;DHT22;21757;43.610;1.440;2022-07-22T14:39:27;30.40;77.30
35635;DHT22;21757;43.610;1.440;2022-07-22T14:41:53;30.20;77.30
35635;DHT22;21757;43.610;1.440;2022-07-22T14:44:19;30.40;77.30
35635;DHT22;21757;43.610;1.440;2022-07-22T14:46:45;30.10;77.10
35635;DHT22;21757;43.610;1.440;2022-07-22T14:49:11;30.10;77.00
35635;DHT22;21757;43.610;1.440;2022-07-22T14:51:36;30.10;77.40
35635;DHT22;21757;43.610;1.440;2022-07-22T14:54:02;30.10;77.20
35635;DHT22;21757;43.610;1.440;2022-07-22T14:56:28;30.10;76.60
35635;DHT22;21757;43.610;1.440;2022-07-22T14:58:54;30.40;77.10
35635;DHT22;21757;43.610;1.440;2022-07-22T15:01:19;31.10;77.90
35635;DHT22;21757;43.610;1.440;2022-07-22T15:03:45;31.40;77.50
35635;DHT22;21757;43.610;1.440;2022-07-22T15:06:11;31.50;77.80
35635;DHT22;21757;43.610;1.440;2022-07-22T15:08:37;31.50;77.10
35635;DHT22;21757;43.610;1.440;2022-07-22T15:11:04;31.40;76.90
35635;DHT22;21757;43.610;1.440;2022-07-22T15:13:31;31.30;76.70
35635;DHT22;21757;43.610;1.440;2022-07-22T15:15:58;30.90;76.50
35635;DHT22;21757;43.610;1.440;2022-07-22T15:18:24;30.80;76.20
35635;DHT22;21757;43.610;1.440;2022-07-22T15:20:50;30.80;76.30
35635;DHT22;21757;43.610;1.440;2022-07-22T15:23:20;31.00;76.40
35635;DHT22;21757;43.610;1.440;2022-07-22T15:25:45;30.80;76.00
35635;DHT22;21757;43.610;1.440;2022-07-22T15:28:11;30.80;76.30
35635;DHT22;21757;43.610;1.440;2022-07-22T15:30:37;31.50;76.60
35635;DHT22;21757;43.610;1.440;2022-07-22T15:33:02;31.70;76.20
35635;DHT22;21757;43.610;1.440;2022-07-22T15:35:28;31.50;76.00
35635;DHT22;21757;43.610;1.440;2022-07-22T15:37:54;31.10;75.30
35635;DHT22;21757;43.610;1.440;2022-07-22T15:40:19;30.70;74.70
35635;DHT22;21757;43.610;1.440;2022-07-22T15:42:46;30.70;75.10
35635;DHT22;21757;43.610;1.440;2022-07-22T15:45:12;30.60;75.40
35635;DHT22;21757;43.610;1.440;2022-07-22T15:47:38;30.70;87.50
35635;DHT22;21757;43.610;1.440;2022-07-22T15:50:04;30.90;75.20
35635;DHT22;21757;43.610;1.440;2022-07-22T15:52:30;30.80;75.40
35635;DHT22;21757;43.610;1.440;2022-07-22T15:54:56;31.00;75.40
35635;DHT22;21757;43.610;1.440;2022-07-22T15:57:21;31.10;75.30
35635;DHT22;21757;43.610;1.440;2022-07-22T16:00:06;31.00;75.40
35635;DHT22;21757;43.610;1.440;2022-07-22T16:02:32;30.90;74.70
35635;DHT22;21757;43.610;1.440;2022-07-22T16:04:58;31.00;74.80
35635;DHT22;21757;43.610;1.440;2022-07-22T16:07:24;30.40;74.70
35635;DHT22;21757;43.610;1.440;2022-07-22T16:09:49;30.60;74.60
35635;DHT22;21757;43.610;1.440;2022-07-22T16:12:15;30.60;75.10
35635;DHT22;21757;43.610;1.440;2022-07-22T16:14:40;31.00;74.70
35635;DHT22;21757;43.610;1.440;2022-07-22T16:17:06;30.80;74.70
35635;DHT22;21757;43.610;1.440;2022-07-22T16:19:32;30.70;74.90
35635;DHT22;21757;43.610;1.440;2022-07-22T16:21:58;30.60;74.50
35635;DHT22;21757;43.610;1.440;2022-07-22T16:24:23;30.50;74.40
35635;DHT22;21757;43.610;1.440;2022-07-22T16:26:49;30.40;74.30
35635;DHT22;21757;43.610;1.440;2022-07-22T16:29:15;30.20;74.10
35635;DHT22;21757;43.610;1.440;2022-07-22T16:31:41;30.30;74.60
35635;DHT22;21757;43.610;1.440;2022-07-22T16:34:06;30.60;74.60
35635;DHT22;21757;43.610;1.440;2022-07-22T16:36:32;30.20;74.00
35635;DHT22;21757;43.610;1.440;2022-07-22T16:38:58;30.50;73.90
35635;DHT22;21757;43.610;1.440;2022-07-22T16:41:25;30.80;74.70
35635;DHT22;21757;43.610;1.440;2022-07-22T16:43:51;30.70;74.60
35635;DHT22;21757;43.610;1.440;2022-07-22T16:46:17;31.00;74.60
35635;DHT22;21757;43.610;1.440;2022-07-22T16:48:42;30.90;74.50
35635;DHT22;21757;43.610;1.440;2022-07-22T16:51:08;31.00;75.00